Time;durP1;ratioP1;P1;durP2;ratioP2;P2;SDS_P1;SDS_P2;PMS_P1;PMS_P2;Temp;Humidity;BMP_temperature;BMP_pressure;BME280_temperature;BME280_humidity;BME280_pressure;Samples;Min_cycle;Max_cycle;Signal;HPM_P1;HPM_P2
2022/12/27 00:02:08;;;;;;;12.20;2.40;;;;;;;10.30;59.83;102169.56;4974825;28;20071;-43
2022/12/27 00:04:33;;;;;;;14.05;1.85;;;;;;;10.25;59.75;102170.22;4974253;28;20034;-42
2022/12/27 00:06:59;;;;;;;13.32;1.83;;;;;;;10.55;58.80;102166.94;4974099;28;20030;-41
2022/12/27 00:09:24;;;;;;;13.05;1.88;;;;;;;10.36;59.41;102164.56;4974336;28;20162;-40
2022/12/27 00:11:50;;;;;;;14.65;2.10;;;;;;;10.45;59.27;102162.25;4974338;28;20018;-42
2022/12/27 00:14:16;;;;;;;13.48;2.03;;;;;;;10.42;59.56;102169.09;4974699;28;20058;-44
2022/12/27 00:16:42;;;;;;;14.95;2.33;;;;;;;10.43;59.26;102161.31;4974012;28;20380;-41
2022/12/27 00:19:07;;;;;;;13.88;1.70;;;;;;;10.66;58.45;102169.03;4974125;28;20031;-41
2022/12/27 00:21:32;;;;;;;10.82;1.95;;;;;;;10.26;58.78;102169.38;4974463;28;20026;-41
2022/12/27 00:23:59;;;;;;;11.50;2.00;;;;;;;10.22;59.07;102173.63;4975196;28;20121;-41
2022/12/27 00:26:27;;;;;;;9.77;1.75;;;;;;;10.08;58.88;102170.47;4975048;28;20093;-41
2022/12/27 00:28:53;;;;;;;10.48;1.50;;;;;;;9.72;58.91;102164.81;4973834;28;20463;-41
2022/12/27 00:31:20;;;;;;;11.02;1.33;;;;;;;9.78;58.57;102174.56;4972384;28;20436;-40
2022/12/27 00:33:47;;;;;;;9.40;1.35;;;;;;;9.95;57.75;102173.47;4973446;28;20419;-43
2022/12/27 00:36:17;;;;;;;8.77;1.40;;;;;;;10.18;56.70;102171.75;4972624;28;20034;-40
2022/12/27 00:38:42;;;;;;;12.43;1.83;;;;;;;10.07;56.45;102175.63;4972298;28;20042;-42
2022/12/27 00:41:08;;;;;;;13.73;1.60;;;;;;;10.18;56.55;102162.16;4971323;28;20015;-42
2022/12/27 00:43:34;;;;;;;10.38;1.50;;;;;;;10.29;56.32;102170.41;4971756;28;20030;-43
2022/12/27 00:46:00;;;;;;;8.10;1.23;;;;;;;10.55;55.95;102168.69;4972590;28;20030;-41
2022/12/27 00:48:26;;;;;;;7.13;1.40;;;;;;;10.69;55.66;102167.41;4972315;28;20082;-42
2022/12/27 00:51:03;;;;;;;9.52;1.42;;;;;;;10.42;57.93;102183.03;4971644;28;20019;-41
2022/12/27 00:53:30;;;;;;;8.32;1.42;;;;;;;10.07;61.10;102175.63;4972669;28;20038;-41
2022/12/27 00:55:55;;;;;;;7.20;1.50;;;;;;;10.00;61.30;102181.47;4972752;28;20074;-41
2022/12/27 00:58:21;;;;;;;8.73;1.50;;;;;;;10.36;61.25;102189.75;4972544;28;20428;-41
2022/12/27 01:00:47;;;;;;;9.80;1.60;;;;;;;9.81;61.98;102190.31;4971726;28;20042;-41
2022/12/27 01:03:13;;;;;;;9.18;1.40;;;;;;;9.89;62.18;102193.19;4971718;28;20239;-41
2022/12/27 01:05:38;;;;;;;8.48;1.30;;;;;;;9.63;62.35;102197.44;4971678;28;20030;-42
2022/12/27 01:08:04;;;;;;;7.53;1.20;;;;;;;9.65;61.30;102188.84;4972036;28;20058;-40
2022/12/27 01:10:29;;;;;;;11.07;1.63;;;;;;;9.96;60.92;102198.69;4971787;28;20022;-40
2022/12/27 01:12:55;;;;;;;14.13;1.65;;;;;;;9.78;61.43;102198.00;4971931;28;20043;-43
2022/12/27 01:15:20;;;;;;;10.32;1.52;;;;;;;9.61;62.37;102202.59;4971922;28;20121;-40
2022/12/27 01:17:46;;;;;;;9.38;1.60;;;;;;;9.97;62.03;102210.88;4972047;28;20502;-44
2022/12/27 01:20:11;;;;;;;12.13;1.70;;;;;;;9.88;61.82;102202.72;4971661;28;20049;-38
2022/12/27 01:22:37;;;;;;;9.93;1.95;;;;;;;10.30;61.36;102213.88;4972068;28;20515;-43
2022/12/27 01:25:02;;;;;;;9.10;1.65;;;;;;;10.30;60.52;102215.59;4972029;28;20051;-40
2022/12/27 01:27:28;;;;;;;10.82;2.00;;;;;;;9.91;62.39;102226.28;4972315;28;20084;-40
2022/12/27 01:29:53;;;;;;;13.15;1.85;;;;;;;9.77;62.59;102233.56;4973544;28;20062;-40
2022/12/27 01:32:18;;;;;;;10.18;1.70;;;;;;;9.86;62.71;102225.22;4973059;28;20038;-41
2022/12/27 01:34:44;;;;;;;9.30;2.00;;;;;;;9.91;62.37;102222.78;4973001;28;20034;-41
2022/12/27 01:37:09;;;;;;;13.57;1.80;;;;;;;9.93;61.76;102221.16;4971989;28;20106;-41
2022/12/27 01:39:34;;;;;;;11.85;2.10;;;;;;;10.07;61.28;102228.63;4971668;28;20029;-42
2022/12/27 01:44:49;;;;;;;12.05;2.10;;;;;;;9.94;61.64;102231.59;4971845;28;20050;-43
2022/12/27 01:47:33;;;;;;;11.50;1.83;;;;;;;9.83;61.47;102232.03;4971319;28;20483;-40
2022/12/27 01:50:13;;;;;;;14.05;1.88;;;;;;;9.52;62.10;102243.88;4971379;28;20026;-42
2022/12/27 01:52:58;;;;;;;8.88;1.80;;;;;;;9.92;61.37;102241.09;4971517;28;20069;-44
2022/12/27 01:55:35;;;;;;;12.68;2.08;;;;;;;10.00;61.23;102244.00;4977671;28;20023;-40
2022/12/27 01:58:23;;;;;;;11.35;2.10;;;;;;;9.89;61.91;102245.28;4978511;28;20030;-41
2022/12/27 02:00:49;;;;;;;10.13;1.73;;;;;;;9.74;62.43;102256.91;4967858;28;20066;-42
2022/12/27 02:03:37;;;;;;;12.57;1.80;;;;;;;9.94;62.00;102252.44;4978078;28;20535;-41
2022/12/27 02:06:05;;;;;;;8.38;1.58;;;;;;;9.50;62.88;102244.66;4978375;28;20050;-41
2022/12/27 02:08:48;;;;;;;7.15;1.65;;;;;;;10.08;61.25;102253.84;4978430;28;20027;-41
2022/12/27 02:11:15;;;;;;;11.40;1.80;;;;;;;9.65;61.87;102258.25;4976796;28;20081;-40
2022/12/27 02:13:45;;;;;;;8.20;2.00;;;;;;;9.78;62.00;102271.81;4981302;28;20030;-40
2022/12/27 02:16:16;;;;;;;10.82;1.80;;;;;;;10.07;60.78;102264.22;4980182;28;20035;-37
2022/12/27 02:18:43;;;;;;;7.32;1.88;;;;;;;10.10;60.96;102274.75;4979939;28;20069;-41
2022/12/27 02:21:35;;;;;;;17.70;2.05;;;;;;;9.81;61.95;102275.38;4981605;28;20427;-40
2022/12/27 02:24:32;;;;;;;10.40;1.80;;;;;;;9.50;62.03;102283.69;4982772;28;20553;-41
2022/12/27 02:27:23;;;;;;;12.20;2.15;;;;;;;9.76;60.80;102285.59;4980738;28;20113;-42
2022/12/27 02:30:05;;;;;;;11.57;1.80;;;;;;;9.89;60.55;102289.56;4980472;28;20496;-41
2022/12/27 02:32:55;;;;;;;9.93;1.55;;;;;;;9.76;60.65;102290.81;4983154;28;20050;-41
2022/12/27 02:35:28;;;;;;;12.73;1.35;;;;;;;9.70;60.76;102288.84;4981854;28;20483;-41
2022/12/27 02:37:59;;;;;;;10.38;1.75;;;;;;;9.67;60.61;102298.28;4977476;28;20033;-41
2022/12/27 02:55:04;;;;;;;8.25;1.50;;;;;;;9.52;60.67;102290.72;4977391;28;20046;-41
2022/12/27 02:57:48;;;;;;;7.28;1.50;;;;;;;9.75;60.40;102299.47;4977641;28;20057;-41
2022/12/27 03:03:35;;;;;;;12.95;1.83;;;;;;;9.52;60.72;102298.53;4978263;28;20121;-41
2022/12/27 03:09:06;;;;;;;7.63;1.80;;;;;;;9.35;60.61;102292.66;4974044;28;20843;-39
2022/12/27 03:17:39;;;;;;;6.30;1.65;;;;;;;9.85;59.30;102304.19;4974676;28;20034;-43
2022/12/27 03:25:46;;;;;;;11.75;1.67;;;;;;;9.53;59.46;102323.75;4974187;28;20045;-40
2022/12/27 03:39:55;;;;;;;12.73;2.03;;;;;;;9.75;59.39;102325.50;4973604;28;20260;-39
2022/12/27 03:45:10;;;;;;;8.60;1.67;;;;;;;9.98;58.31;102324.69;4973760;28;20173;-43
2022/12/27 03:47:54;;;;;;;9.13;1.70;;;;;;;9.81;58.56;102328.38;4974134;28;20117;-40
2022/12/27 03:50:27;;;;;;;11.77;1.33;;;;;;;9.90;58.34;102333.91;4973439;28;20031;-39
2022/12/27 03:53:17;;;;;;;8.93;1.43;;;;;;;9.75;58.06;102328.13;4973288;28;20290;-41
2022/12/27 03:55:43;;;;;;;7.00;1.40;;;;;;;9.49;58.96;102320.97;4973171;28;20707;-39
2022/12/27 03:58:08;;;;;;;8.18;1.55;;;;;;;9.49;58.36;102323.56;4973466;28;20050;-46
2022/12/27 04:00:34;;;;;;;6.35;1.20;;;;;;;9.49;57.91;102326.16;4972859;28;20031;-40
2022/12/27 04:02:59;;;;;;;9.90;1.60;;;;;;;9.57;58.48;102328.28;4973112;28;20054;-39
2022/12/27 04:05:24;;;;;;;11.00;1.50;;;;;;;9.62;58.35;102326.75;4972999;28;20026;-44
2022/12/27 04:35:09;;;;;;;8.73;1.40;;;;;;;9.92;59.67;102336.59;4972790;28;20282;-40
2022/12/27 04:37:34;;;;;;;10.20;1.50;;;;;;;9.57;60.72;102341.28;4971510;28;20022;-44
2022/12/27 04:56:26;;;;;;;9.75;1.50;;;;;;;9.67;59.89;102360.78;4972471;28;20061;-40
2022/12/27 05:04:19;;;;;;;8.80;1.45;;;;;;;9.49;60.51;102360.00;4972073;28;20405;-42
2022/12/27 05:06:45;;;;;;;10.30;1.40;;;;;;;9.29;61.01;102366.97;4971952;28;20662;-40
2022/12/27 05:14:38;;;;;;;10.30;1.13;;;;;;;9.67;60.15;102360.78;4972510;28;20790;-41
2022/12/27 05:17:04;;;;;;;12.73;2.00;;;;;;;9.56;60.79;102362.06;4972451;28;20035;-40
2022/12/27 05:19:29;;;;;;;11.43;1.55;;;;;;;9.62;60.63;102357.09;4972289;28;20029;-38
2022/12/27 05:27:22;;;;;;;8.43;1.50;;;;;;;9.66;60.12;102366.78;4973156;28;20517;-40
2022/12/27 05:29:47;;;;;;;6.32;1.40;;;;;;;9.63;59.62;102371.91;4972409;28;20023;-42
2022/12/27 05:32:13;;;;;;;11.25;1.70;;;;;;;9.54;59.93;102377.59;4973364;28;20390;-40
2022/12/27 05:34:38;;;;;;;8.10;1.40;;;;;;;9.81;59.50;102384.78;4973845;28;20031;-43
2022/12/27 05:37:03;;;;;;;12.10;1.88;;;;;;;9.58;60.07;102382.09;4972064;28;20030;-40
2022/12/27 05:39:28;;;;;;;7.97;1.40;;;;;;;9.71;59.95;102383.50;4971974;28;20286;-40
2022/12/27 05:41:54;;;;;;;8.55;1.40;;;;;;;9.93;59.31;102390.47;4971492;28;20019;-43
2022/12/27 05:44:19;;;;;;;8.90;1.45;;;;;;;9.49;60.38;102384.34;4970338;28;20519;-41
2022/12/27 05:46:44;;;;;;;6.10;1.60;;;;;;;9.75;59.65;102388.91;4971289;28;20023;-40
2022/12/27 05:49:10;;;;;;;10.82;1.80;;;;;;;9.57;59.76;102387.28;4971981;28;20105;-41
2022/12/27 05:51:35;;;;;;;8.40;1.63;;;;;;;9.84;58.91;102396.19;4971003;28;20550;-39
2022/12/27 05:54:00;;;;;;;10.07;1.80;;;;;;;9.51;60.40;102397.44;4970208;28;20065;-40
2022/12/27 05:56:26;;;;;;;7.03;1.50;;;;;;;9.42;60.41;102392.72;4973380;28;20022;-39
2022/12/27 05:58:52;;;;;;;11.55;1.85;;;;;;;9.45;60.61;102391.97;4976913;28;20034;-41
2022/12/27 06:01:18;;;;;;;9.30;1.55;;;;;;;9.70;59.66;102386.91;4975794;28;20026;-42
2022/12/27 06:03:44;;;;;;;11.93;1.58;;;;;;;9.64;59.73;102384.94;4975504;28;20388;-42
2022/12/27 06:06:10;;;;;;;10.88;1.40;;;;;;;9.73;59.62;102381.84;4972049;28;20034;-42
2022/12/27 06:08:36;;;;;;;9.60;1.85;;;;;;;9.44;60.34;102385.88;4971796;28;20460;-40
2022/12/27 06:11:06;;;;;;;8.48;1.50;;;;;;;9.43;60.80;102391.88;4970956;28;20030;-40
2022/12/27 06:13:32;;;;;;;12.57;1.67;;;;;;;9.25;60.63;102392.00;4971489;28;20035;-45
2022/12/27 06:15:59;;;;;;;10.32;1.60;;;;;;;9.23;60.73;102403.16;4972482;28;20045;-36
2022/12/27 06:18:24;;;;;;;9.68;1.48;;;;;;;9.03;60.92;102406.59;4971455;28;20041;-42
2022/12/27 06:20:50;;;;;;;12.60;1.85;;;;;;;9.18;61.18;102407.28;4971065;28;20018;-41
2022/12/27 06:23:15;;;;;;;9.27;1.70;;;;;;;9.38;60.36;102409.03;4971536;28;20387;-39
2022/12/27 06:25:40;;;;;;;7.45;1.60;;;;;;;9.56;60.02;102419.34;4971363;28;20030;-42
2022/12/27 06:28:05;;;;;;;13.43;1.63;;;;;;;9.60;59.61;102418.63;4970946;28;20062;-39
2022/12/27 06:30:31;;;;;;;8.25;1.63;;;;;;;9.35;60.51;102417.59;4969590;28;20064;-38
2022/12/27 06:32:56;;;;;;;11.05;1.75;;;;;;;9.18;60.55;102418.56;4972032;28;20035;-39
2022/12/27 06:35:21;;;;;;;12.20;1.60;;;;;;;9.22;60.31;102417.88;4972679;28;20037;-40
2022/12/27 06:37:47;;;;;;;10.35;1.90;;;;;;;9.53;59.72;102427.88;4972837;28;20026;-45
2022/12/27 06:40:12;;;;;;;10.40;1.85;;;;;;;9.39;60.14;102426.44;4973621;28;20077;-41
2022/12/27 06:42:37;;;;;;;13.27;1.88;;;;;;;9.39;60.02;102430.75;4976125;28;20074;-41
2022/12/27 06:45:05;;;;;;;5.80;1.40;;;;;;;9.29;59.95;102443.34;4974046;28;20037;-43
2022/12/27 06:47:30;;;;;;;11.35;1.60;;;;;;;9.62;59.12;102437.81;4974603;28;20411;-42
2022/12/27 06:49:56;;;;;;;5.88;1.58;;;;;;;9.54;59.38;102434.88;4974631;28;20031;-44
2022/12/27 06:52:22;;;;;;;11.30;1.80;;;;;;;9.30;60.19;102433.84;4974114;28;20027;-40
2022/12/27 06:54:47;;;;;;;9.52;1.73;;;;;;;9.43;60.02;102432.66;4974137;28;20518;-41
2022/12/27 06:57:13;;;;;;;10.70;2.17;;;;;;;9.40;59.64;102429.91;4974421;28;20062;-43
2022/12/27 06:59:38;;;;;;;10.18;1.80;;;;;;;9.36;60.28;102432.38;4975023;28;20053;-43
2022/12/27 07:02:03;;;;;;;6.80;1.58;;;;;;;9.38;60.21;102436.78;4974318;28;20029;-44
2022/12/27 07:04:28;;;;;;;8.90;1.33;;;;;;;9.37;60.11;102435.88;4974288;28;20359;-40
2022/12/27 07:06:54;;;;;;;11.93;1.88;;;;;;;9.20;61.15;102442.97;4974618;28;20026;-40
2022/12/27 07:09:19;;;;;;;7.82;1.60;;;;;;;9.21;60.69;102441.25;4974315;28;20027;-40
2022/12/27 07:11:44;;;;;;;7.68;1.48;;;;;;;9.25;60.28;102433.63;4974545;28;20081;-42
2022/12/27 07:14:10;;;;;;;6.75;1.48;;;;;;;9.18;60.43;102434.19;4974454;28;20494;-40
2022/12/27 07:16:36;;;;;;;8.90;1.63;;;;;;;9.01;61.41;102439.47;4974661;28;20031;-41
2022/12/27 07:19:01;;;;;;;6.97;1.50;;;;;;;9.04;61.12;102439.59;4974465;28;20113;-42
2022/12/27 07:21:28;;;;;;;12.52;1.73;;;;;;;8.86;61.85;102437.06;4973765;28;20061;-43
2022/12/27 07:23:54;;;;;;;7.65;1.70;;;;;;;9.07;61.33;102447.56;4973738;28;20019;-43
2022/12/27 07:26:23;;;;;;;8.95;1.48;;;;;;;9.05;61.42;102451.78;4973717;28;20030;-40
2022/12/27 07:28:52;;;;;;;10.20;1.65;;;;;;;9.04;61.75;102458.69;4973471;28;20055;-39
2022/12/27 07:31:19;;;;;;;8.73;1.50;;;;;;;9.08;61.88;102459.75;4973538;28;20487;-39
2022/12/27 07:33:45;;;;;;;6.68;1.58;;;;;;;9.16;62.01;102463.56;4973630;28;20039;-43
2022/12/27 07:36:20;;;;;;;8.70;1.65;;;;;;;9.28;61.58;102464.09;4973813;28;20133;-43
2022/12/27 07:38:45;;;;;;;;;;;;;;;9.06;62.31;102477.88;4974267;28;20027;-41
2022/12/27 07:41:11;;;;;;;13.55;1.98;;;;;;;9.30;61.44;102463.34;4973684;28;19913;-41
2022/12/27 07:43:37;;;;;;;12.68;1.63;;;;;;;9.29;61.80;102473.69;4973584;28;20031;-40
2022/12/27 07:46:11;;;;;;;9.38;2.10;;;;;;;9.04;62.78;102468.22;4973292;28;20026;-44
2022/12/27 07:48:37;;;;;;;9.48;1.75;;;;;;;9.04;63.31;102460.41;4973805;28;20395;-41
2022/12/27 07:51:03;;;;;;;7.32;2.00;;;;;;;9.26;62.37;102463.16;4973305;28;20030;-40
2022/12/27 07:53:29;;;;;;;6.93;2.00;;;;;;;9.26;62.91;102458.84;4973378;28;20031;-40
2022/12/27 07:55:54;;;;;;;10.00;2.22;;;;;;;9.18;63.05;102465.41;4973292;28;20023;-40
2022/12/27 07:58:20;;;;;;;9.02;2.50;;;;;;;9.16;62.86;102463.56;4973313;28;20077;-41
2022/12/27 08:00:47;;;;;;;9.30;2.50;;;;;;;9.22;63.33;102461.22;4973021;28;20030;-44
2022/12/27 08:03:13;;;;;;;10.80;2.47;;;;;;;9.27;63.27;102472.75;4973490;28;20033;-38
2022/12/27 08:05:48;;;;;;;9.77;2.45;;;;;;;9.23;63.33;102465.59;4972979;28;20030;-41
2022/12/27 08:08:16;;;;;;;10.05;2.53;;;;;;;9.21;63.53;102475.94;4973198;28;20027;-44
2022/12/27 08:10:41;;;;;;;13.35;2.83;;;;;;;9.07;64.40;102477.06;4972656;28;20027;-40
2022/12/27 08:13:06;;;;;;;15.18;2.80;;;;;;;9.12;64.39;102480.75;4973141;28;20027;-40
2022/12/27 08:15:32;;;;;;;13.63;2.80;;;;;;;9.16;63.84;102476.56;4973395;28;20113;-38
2022/12/27 08:17:57;;;;;;;10.90;2.60;;;;;;;9.02;64.49;102477.69;4973243;28;20029;-39
2022/12/27 08:20:22;;;;;;;12.95;2.80;;;;;;;9.02;64.44;102469.88;4972787;28;20116;-40
2022/12/27 08:22:48;;;;;;;9.68;2.58;;;;;;;8.79;65.54;102471.41;4973801;28;20023;-39
2022/12/27 08:25:13;;;;;;;10.63;2.60;;;;;;;8.79;65.96;102469.69;4973831;28;20138;-40
2022/12/27 08:27:38;;;;;;;12.45;2.88;;;;;;;8.80;65.81;102471.50;4973661;28;20023;-40
2022/12/27 08:30:04;;;;;;;16.00;3.25;;;;;;;8.84;65.31;102464.72;4974159;28;20027;-42
2022/12/27 08:32:30;;;;;;;16.05;2.88;;;;;;;8.89;65.79;102474.53;4974870;28;20114;-40
2022/12/27 08:34:55;;;;;;;14.30;2.85;;;;;;;8.91;65.32;102470.25;4975637;28;20021;-40
2022/12/27 08:37:20;;;;;;;13.38;2.92;;;;;;;8.85;66.03;102482.09;4975702;28;20038;-43
2022/12/27 08:39:45;;;;;;;14.05;2.80;;;;;;;8.93;66.09;102480.75;4973648;28;20085;-42
2022/12/27 08:42:12;;;;;;;16.70;2.65;;;;;;;9.15;65.59;102490.41;4972801;28;20065;-39
2022/12/27 08:44:37;;;;;;;11.35;2.47;;;;;;;9.15;65.26;102482.63;4972963;28;20035;-43
2022/12/27 08:47:03;;;;;;;9.10;2.33;;;;;;;9.15;65.49;102474.81;4972932;28;20663;-36
2022/12/27 08:49:28;;;;;;;11.77;2.38;;;;;;;9.35;64.81;102468.75;4972579;28;20073;-40
2022/12/27 08:51:54;;;;;;;9.43;2.70;;;;;;;9.40;65.15;102474.16;4971807;28;20392;-41
2022/12/27 08:54:20;;;;;;;12.77;2.60;;;;;;;9.38;65.22;102471.50;4972225;28;20041;-41
2022/12/27 08:56:45;;;;;;;12.15;2.50;;;;;;;9.49;65.10;102472.84;4972836;28;20026;-39
2022/12/27 08:59:11;;;;;;;9.57;3.00;;;;;;;9.59;64.57;102484.53;4972550;28;20038;-45
2022/12/27 09:01:36;;;;;;;8.93;2.55;;;;;;;9.68;64.47;102490.16;4973049;28;20050;-40
2022/12/27 09:04:07;;;;;;;10.25;2.58;;;;;;;9.68;64.25;102491.03;4972533;28;20487;-41
2022/12/27 09:06:33;;;;;;;11.93;2.67;;;;;;;9.70;64.32;102488.47;4972709;28;20038;-39
2022/12/27 09:09:00;;;;;;;9.50;2.70;;;;;;;9.73;63.90;102488.63;4972111;28;20030;-40
2022/12/27 09:11:31;;;;;;;10.63;2.85;;;;;;;9.80;63.88;102488.06;4972211;28;20050;-40
2022/12/27 09:13:59;;;;;;;15.63;2.88;;;;;;;9.64;64.06;102493.44;4971960;28;20042;-41
2022/12/27 09:16:26;;;;;;;14.75;2.95;;;;;;;9.55;64.66;102490.44;4971898;28;20056;-40
2022/12/27 09:18:53;;;;;;;14.55;3.20;;;;;;;9.58;64.44;102493.16;4972499;28;20027;-46
2022/12/27 09:21:20;;;;;;;12.73;2.90;;;;;;;9.51;64.82;102488.53;4972386;28;20019;-40
2022/12/27 09:23:47;;;;;;;9.45;3.08;;;;;;;9.69;65.11;102491.94;4971177;28;20026;-40
2022/12/27 09:26:21;;;;;;;12.93;3.10;;;;;;;9.60;64.57;102484.59;4973136;28;20030;-43
2022/12/27 09:28:47;;;;;;;;;;;;;;;9.57;64.97;102475.78;4972599;28;20041;-39
2022/12/27 09:31:14;;;;;;;15.63;3.78;;;;;;;9.68;64.38;102480.63;4971993;28;19909;-41
2022/12/27 09:33:39;;;;;;;16.45;4.00;;;;;;;9.70;64.65;102489.38;4971448;28;20023;-42
2022/12/27 09:36:07;;;;;;;15.00;4.00;;;;;;;9.87;64.28;102490.09;4971666;28;20106;-39
2022/12/27 09:38:34;;;;;;;14.00;3.50;;;;;;;9.94;63.72;102489.50;4971654;28;20078;-44
2022/12/27 09:41:02;;;;;;;12.63;3.60;;;;;;;10.00;64.11;102489.75;4971338;28;20026;-43
2022/12/27 09:43:59;;;;;;;16.20;3.70;;;;;;;10.25;63.69;102493.41;4972226;28;20015;-40
2022/12/27 09:46:32;;;;;;;11.77;3.15;;;;;;;10.22;63.37;102488.09;4969188;28;20035;-42
2022/12/27 09:48:58;;;;;;;14.85;3.72;;;;;;;10.15;63.59;102492.13;4971874;28;20031;-41
2022/12/27 09:52:07;;;;;;;10.88;3.60;;;;;;;10.21;63.36;102504.53;4971208;28;20034;-45
2022/12/27 09:55:00;;;;;;;9.57;3.45;;;;;;;10.52;63.38;102508.44;4964438;28;20038;-43
2022/12/27 09:57:33;;;;;;;15.77;3.63;;;;;;;10.77;62.56;102517.22;4972323;28;20399;-43
2022/12/27 10:00:04;;;;;;;9.38;3.35;;;;;;;10.55;62.06;102505.09;4971286;28;20026;-42
2022/12/27 10:02:29;;;;;;;10.40;3.67;;;;;;;10.65;62.25;102515.03;4970825;28;20518;-40
2022/12/27 10:04:57;;;;;;;14.68;3.60;;;;;;;10.51;62.80;102505.78;4971491;28;20042;-41
2022/12/27 10:07:41;;;;;;;11.65;3.60;;;;;;;10.37;63.11;102509.56;4971721;28;20031;-40
2022/12/27 10:10:25;;;;;;;11.65;3.42;;;;;;;10.52;61.82;102498.03;4971913;28;20353;-39
2022/12/27 10:13:04;;;;;;;12.45;3.60;;;;;;;10.48;61.93;102505.66;4972263;28;20031;-42
2022/12/27 10:16:02;;;;;;;13.00;3.53;;;;;;;10.06;63.30;102502.19;4976280;28;20023;-41
2022/12/27 10:18:33;;;;;;;14.40;3.38;;;;;;;10.25;62.84;102504.72;4975684;28;20030;-40
2022/12/27 10:21:18;;;;;;;9.27;3.10;;;;;;;10.00;63.83;102507.16;4977175;28;20081;-40
2022/12/27 10:23:49;;;;;;;9.93;3.50;;;;;;;10.10;63.18;102504.97;4978158;28;20102;-40
2022/12/27 10:26:18;;;;;;;9.63;3.30;;;;;;;10.08;63.34;102500.50;4977819;28;20503;-40
2022/12/27 10:28:50;;;;;;;11.30;3.40;;;;;;;10.32;63.11;102496.31;4976093;28;20023;-45
2022/12/27 10:31:17;;;;;;;11.25;3.40;;;;;;;9.98;63.21;102501.84;4974609;28;20542;-43
2022/12/27 10:33:44;;;;;;;9.50;3.25;;;;;;;9.76;64.85;102501.75;4975415;28;20077;-39
2022/12/27 10:36:13;;;;;;;12.50;3.47;;;;;;;9.90;64.39;102495.44;4975298;28;20395;-40
2022/12/27 10:38:38;;;;;;;11.75;3.60;;;;;;;10.25;63.80;102493.41;4975187;28;20036;-40
2022/12/27 10:41:30;;;;;;;9.65;3.33;;;;;;;10.14;64.37;102492.94;4974854;28;20031;-36
2022/12/27 10:43:56;;;;;;;10.90;3.72;;;;;;;10.18;64.05;102486.19;4974803;28;20396;-40
2022/12/27 10:46:24;;;;;;;12.45;3.58;;;;;;;10.02;64.29;102484.63;4975031;28;20027;-40
2022/12/27 10:48:54;;;;;;;15.80;3.50;;;;;;;10.35;63.23;102487.75;4975496;28;20403;-40
2022/12/27 10:51:22;;;;;;;15.45;3.72;;;;;;;10.30;63.46;102484.09;4976150;28;20026;-41
2022/12/27 10:53:47;;;;;;;10.40;3.75;;;;;;;10.51;62.76;102491.03;4975886;28;20031;-40
2022/12/27 10:56:23;;;;;;;13.23;3.72;;;;;;;10.19;64.40;102483.63;4976173;28;20034;-41
2022/12/27 10:58:51;;;;;;;10.30;3.47;;;;;;;10.56;63.23;102484.25;4974008;28;20143;-43
2022/12/27 11:01:25;;;;;;;11.00;4.03;;;;;;;10.20;64.73;102493.22;4975218;28;20081;-40
2022/12/27 11:04:06;;;;;;;11.48;3.70;;;;;;;10.27;64.22;102500.47;4974659;28;20037;-39
2022/12/27 11:06:32;;;;;;;10.48;4.03;;;;;;;10.36;64.63;102498.25;4974531;28;20522;-39
2022/12/27 11:08:57;;;;;;;12.27;4.80;;;;;;;10.03;65.13;102505.53;4974914;28;20062;-40
2022/12/27 11:11:26;;;;;;;11.60;4.13;;;;;;;10.39;64.56;102503.56;4974558;28;20484;-39
2022/12/27 11:13:51;;;;;;;13.90;4.30;;;;;;;10.45;64.18;102500.31;4974875;28;20507;-40
2022/12/27 11:16:34;;;;;;;13.63;4.45;;;;;;;10.44;64.39;102504.63;4974491;28;20093;-41
2022/12/27 11:19:00;;;;;;;15.05;4.25;;;;;;;10.67;63.78;102504.66;4974468;28;20026;-41
2022/12/27 11:21:27;;;;;;;10.80;4.15;;;;;;;10.29;63.89;102505.75;4974349;28;20468;-41
2022/12/27 11:23:57;;;;;;;11.38;4.50;;;;;;;10.23;65.28;102501.19;4977529;28;20030;-40
2022/12/27 11:26:30;;;;;;;10.45;4.20;;;;;;;10.91;63.43;102492.56;4975737;28;20038;-43
2022/12/27 11:29:00;;;;;;;10.13;4.38;;;;;;;10.57;63.43;102490.38;4974147;28;20098;-42
2022/12/27 11:31:37;;;;;;;16.92;4.63;;;;;;;10.92;62.66;102499.53;4974119;28;20018;-40
2022/12/27 11:34:32;;;;;;;10.50;4.43;;;;;;;11.05;62.72;102487.84;4974262;28;20499;-39
2022/12/27 11:37:19;;;;;;;13.25;4.72;;;;;;;11.09;62.44;102484.53;4973914;28;20056;-39
2022/12/27 11:40:12;;;;;;;11.07;4.45;;;;;;;11.07;62.98;102486.19;4974267;28;20027;-39
2022/12/27 11:42:47;;;;;;;9.50;4.30;;;;;;;10.93;62.80;102481.34;4973376;28;20054;-40
2022/12/27 11:45:18;;;;;;;16.30;4.93;;;;;;;10.93;63.09;102478.72;4973983;28;20384;-42
2022/12/27 11:47:47;;;;;;;12.02;4.47;;;;;;;10.59;63.80;102478.28;4974129;28;20033;-42
2022/12/27 11:50:27;;;;;;;9.82;4.18;;;;;;;11.29;62.53;102487.00;4972313;28;20031;-44
2022/12/27 11:53:28;;;;;;;14.07;4.50;;;;;;;11.17;62.61;102472.63;4992527;28;20049;-44
2022/12/27 11:56:41;;;;;;;13.48;4.80;;;;;;;11.31;62.80;102476.63;5010166;28;20077;-43
2022/12/27 11:59:32;;;;;;;10.10;4.43;;;;;;;11.06;63.14;102480.06;5000981;28;20076;-42
2022/12/27 12:02:17;;;;;;;11.80;5.00;;;;;;;10.86;64.11;102473.22;5012212;28;20026;-39
2022/12/27 12:05:07;;;;;;;11.35;4.50;;;;;;;11.02;64.13;102462.53;5012428;28;20401;-41
2022/12/27 12:07:35;;;;;;;11.10;3.90;;;;;;;11.30;63.78;102462.69;5012648;28;20034;-37
2022/12/27 12:10:39;;;;;;;12.23;4.35;;;;;;;11.12;64.47;102458.53;5011224;28;20053;-43
2022/12/27 12:13:47;;;;;;;12.00;4.40;;;;;;;11.75;62.77;102452.09;5011941;28;20398;-40
2022/12/27 12:16:44;;;;;;;10.02;4.13;;;;;;;11.96;61.98;102451.91;5011726;28;20026;-40
2022/12/27 12:19:23;;;;;;;11.63;4.53;;;;;;;11.93;62.50;102430.91;5012076;28;20403;-43
2022/12/27 12:21:51;;;;;;;11.30;4.30;;;;;;;11.49;62.86;102418.94;5010742;28;20351;-40
2022/12/27 12:24:39;;;;;;;10.18;4.57;;;;;;;10.99;64.10;102411.09;5011229;28;20026;-39
2022/12/27 12:27:16;;;;;;;11.68;4.32;;;;;;;11.60;62.89;102417.56;5011343;28;20042;-39
2022/12/27 12:30:19;;;;;;;12.50;4.80;;;;;;;11.87;62.25;102408.06;5011735;28;20029;-43
2022/12/27 12:32:57;;;;;;;9.32;4.22;;;;;;;11.89;62.47;102411.63;5011488;28;20065;-42
2022/12/27 12:35:41;;;;;;;8.93;3.78;;;;;;;11.39;63.51;102417.75;5011637;28;20061;-41
2022/12/27 12:38:30;;;;;;;14.32;4.00;;;;;;;11.53;63.02;102399.91;5010497;28;20360;-40
2022/12/27 12:41:22;;;;;;;15.02;4.00;;;;;;;11.39;63.00;102395.13;5011819;28;20029;-39
2022/12/27 12:44:24;;;;;;;10.15;3.90;;;;;;;11.60;63.33;102386.22;5004089;28;20041;-38
2022/12/27 12:47:07;;;;;;;12.95;3.55;;;;;;;11.90;61.46;102376.81;5012664;28;20030;-39
2022/12/27 12:49:49;;;;;;;9.90;3.55;;;;;;;11.87;61.50;102370.59;5013014;28;20435;-39
2022/12/27 12:52:33;;;;;;;10.30;3.80;;;;;;;11.85;61.75;102362.72;5011006;28;20115;-39
2022/12/27 12:55:27;;;;;;;10.70;3.37;;;;;;;11.56;62.16;102358.25;5011659;28;20037;-42
2022/12/27 12:58:15;;;;;;;7.93;3.60;;;;;;;11.17;63.42;102358.66;5011856;28;20061;-40
2022/12/27 13:00:53;;;;;;;10.50;3.67;;;;;;;11.55;62.56;102349.50;5011619;28;20026;-39
2022/12/27 13:03:44;;;;;;;12.30;3.63;;;;;;;11.29;63.37;102348.63;5011140;28;20091;-41
2022/12/27 13:06:30;;;;;;;8.52;3.67;;;;;;;11.05;63.75;102352.13;5011164;28;20104;-42
2022/12/27 13:09:15;;;;;;;12.30;3.80;;;;;;;11.27;63.89;102337.28;5010833;28;20108;-39
2022/12/27 13:12:21;;;;;;;12.13;3.72;;;;;;;11.35;63.23;102346.22;5010660;28;20030;-40
2022/12/27 13:15:12;;;;;;;8.45;3.60;;;;;;;11.54;63.00;102347.72;5007183;28;20068;-40
2022/12/27 13:18:15;;;;;;;10.40;3.83;;;;;;;11.43;63.07;102343.00;5009868;28;20045;-42
2022/12/27 13:20:55;;;;;;;10.10;3.78;;;;;;;11.69;62.59;102339.50;5011334;28;20219;-40
2022/12/27 13:24:00;;;;;;;12.55;3.60;;;;;;;11.30;63.72;102334.75;5011405;28;20022;-41
2022/12/27 13:26:29;;;;;;;10.63;3.50;;;;;;;11.46;63.25;102336.16;5011166;28;20037;-39
2022/12/27 13:28:59;;;;;;;9.07;3.70;;;;;;;11.74;62.16;102319.69;5007710;28;20514;-39
2022/12/27 13:31:34;;;;;;;8.73;3.65;;;;;;;11.43;63.32;102325.59;5010425;28;20018;-39
2022/12/27 13:34:44;;;;;;;9.70;3.63;;;;;;;11.46;63.28;102309.16;5010874;28;20036;-41
2022/12/27 13:37:10;;;;;;;9.63;3.65;;;;;;;11.59;63.03;102306.97;4987329;28;20165;-42